createdAt,value
2023-04-22T00:00:21.736Z,14.95
2023-04-22T00:03:15.732Z,13.80
2023-04-22T00:06:03.106Z,14.55
2023-04-22T00:08:56.589Z,17.38
2023-04-22T00:11:50.595Z,15.27
2023-04-22T00:14:38.553Z,14.93
2023-04-22T00:17:32.588Z,15.52
2023-04-22T00:20:21.881Z,15.80
2023-04-22T00:23:15.609Z,14.65
2023-04-22T00:26:02.722Z,16.27
2023-04-22T00:28:56.555Z,16.80
2023-04-22T00:31:43.694Z,15.98
2023-04-22T00:34:37.520Z,16.75
2023-04-22T00:37:33.921Z,15.25
2023-04-22T00:40:21.912Z,17.58
2023-04-22T00:43:15.601Z,16.08
2023-04-22T00:46:02.744Z,15.60
2023-04-22T00:48:56.569Z,18.83
2023-04-22T00:51:43.667Z,15.60
2023-04-22T00:54:38.564Z,17.00
2023-04-22T00:57:26.539Z,17.83
2023-04-22T01:00:20.604Z,16.02
2023-04-22T01:03:08.461Z,17.20
2023-04-22T01:06:03.605Z,18.30
2023-04-22T01:08:57.640Z,17.33
2023-04-22T01:11:51.634Z,15.30
2023-04-22T01:14:45.599Z,17.15
2023-04-22T01:17:34.053Z,15.63
2023-04-22T01:20:29.700Z,17.20
2023-04-22T01:23:21.326Z,18.67
2023-04-22T01:26:14.622Z,17.50
2023-04-22T01:29:02.880Z,17.65
2023-04-22T01:31:56.692Z,17.63
2023-04-22T01:34:43.920Z,18.95
2023-04-22T01:37:37.678Z,19.15
2023-04-22T01:40:32.647Z,17.05
2023-04-22T01:43:19.943Z,20.27
2023-04-22T01:46:14.673Z,16.70
2023-04-22T01:49:01.856Z,18.00
2023-04-22T01:51:55.767Z,19.58
2023-04-22T01:54:43.962Z,19.50
2023-04-22T01:57:37.763Z,20.02
2023-04-22T02:00:25.104Z,18.88
2023-04-22T02:03:25.901Z,18.98
2023-04-22T02:06:19.693Z,21.40
2023-04-22T02:09:13.681Z,20.38
2023-04-22T02:12:07.799Z,20.50
2023-04-22T02:14:54.922Z,18.33
2023-04-22T02:17:49.716Z,20.25
2023-04-22T02:20:37.467Z,20.38
2023-04-22T02:23:31.705Z,18.80
2023-04-22T02:26:32.751Z,20.20
2023-04-22T02:29:19.857Z,22.08
2023-04-22T02:32:13.742Z,22.08
2023-04-22T02:35:02.006Z,23.88
2023-04-22T02:37:55.715Z,24.30
2023-04-22T02:40:42.764Z,22.38
2023-04-22T02:43:36.776Z,25.92
2023-04-22T02:46:24.036Z,24.17
2023-04-22T02:49:17.767Z,24.67
2023-04-22T02:52:05.494Z,25.88
2023-04-22T02:54:58.762Z,25.63
2023-04-22T02:57:46.090Z,24.42
2023-04-22T03:00:39.914Z,23.67
2023-04-22T03:03:33.955Z,21.90
2023-04-22T03:06:21.628Z,22.35
2023-04-22T03:09:15.806Z,24.13
2023-04-22T03:12:02.976Z,23.35
2023-04-22T03:14:56.792Z,24.02
2023-04-22T03:17:43.972Z,22.67
2023-04-22T03:20:37.812Z,21.55
2023-04-22T03:23:24.995Z,24.58
2023-04-22T03:26:19.916Z,23.48
2023-04-22T03:29:07.185Z,23.98
2023-04-22T03:32:02.000Z,24.58
2023-04-22T03:34:49.115Z,24.15
2023-04-22T03:37:42.854Z,21.80
2023-04-22T03:40:36.902Z,22.77
2023-04-22T03:43:30.898Z,26.38
2023-04-22T03:46:24.954Z,20.73
2023-04-22T03:49:12.330Z,23.85
2023-04-22T03:52:05.880Z,22.17
2023-04-22T03:54:52.974Z,19.13
2023-04-22T03:57:46.880Z,23.27
2023-04-22T04:00:40.900Z,24.23
2023-04-22T04:03:35.015Z,20.63
2023-04-22T04:06:28.881Z,20.48
2023-04-22T04:09:22.919Z,19.70
2023-04-22T04:12:16.896Z,19.27
2023-04-22T04:15:04.509Z,20.35
2023-04-22T04:17:57.956Z,22.58
2023-04-22T04:20:51.932Z,22.73
2023-04-22T04:23:38.964Z,24.88
2023-04-22T04:26:33.894Z,25.67
2023-04-22T04:29:27.894Z,23.67
2023-04-22T04:32:15.252Z,21.38
2023-04-22T04:35:10.004Z,24.15
2023-04-22T04:38:03.946Z,21.17
2023-04-22T04:40:51.787Z,23.10
2023-04-22T04:43:44.972Z,23.20
2023-04-22T04:46:32.423Z,21.33
2023-04-22T04:49:26.942Z,21.42
2023-04-22T04:52:14.013Z,22.52
2023-04-22T04:55:08.002Z,23.55
2023-04-22T04:58:01.996Z,23.25
2023-04-22T05:00:55.941Z,20.88
2023-04-22T05:03:43.148Z,20.30
2023-04-22T05:06:38.020Z,22.90
2023-04-22T05:09:31.983Z,25.40
2023-04-22T05:12:26.959Z,24.75
2023-04-22T05:15:21.001Z,23.90
2023-04-22T05:18:09.544Z,21.10
2023-04-22T05:21:06.030Z,21.95
2023-04-22T05:23:53.085Z,18.77
2023-04-22T05:26:47.002Z,19.38
2023-04-22T05:29:34.200Z,17.50
2023-04-22T05:32:28.130Z,17.20
2023-04-22T05:35:15.347Z,17.27
2023-04-22T05:38:10.015Z,15.90
2023-04-22T05:40:57.104Z,17.33
2023-04-22T05:43:51.311Z,16.27
2023-04-22T05:46:39.068Z,14.98
2023-04-22T05:49:33.144Z,13.32
2023-04-22T05:52:20.313Z,14.90
2023-04-22T05:55:14.059Z,13.20
2023-04-22T05:58:08.107Z,14.93
2023-04-22T06:00:55.284Z,13.25
2023-04-22T06:03:49.174Z,11.95
2023-04-22T06:06:36.544Z,13.70
2023-04-22T06:09:30.061Z,13.43
2023-04-22T06:12:17.164Z,13.45
2023-04-22T06:15:12.290Z,12.88
2023-04-22T06:17:59.422Z,13.07
2023-04-22T06:20:53.862Z,13.95
2023-04-22T06:23:42.917Z,13.73
2023-04-22T06:26:36.080Z,14.82
2023-04-22T06:29:23.166Z,10.43
2023-04-22T06:32:17.129Z,11.93
2023-04-22T06:35:11.213Z,14.05
2023-04-22T06:37:58.389Z,13.73
2023-04-22T06:40:52.258Z,12.55
2023-04-22T06:43:39.470Z,11.20
2023-04-22T06:46:33.171Z,9.15
2023-04-22T06:49:20.307Z,8.43
2023-04-22T06:52:14.182Z,10.68
2023-04-22T06:55:03.213Z,10.57
2023-04-22T06:57:58.206Z,9.20
2023-04-22T07:00:45.337Z,12.93
2023-04-22T07:03:39.268Z,12.48
2023-04-22T07:06:30.048Z,12.18
2023-04-22T07:09:24.179Z,12.93
2023-04-22T07:12:18.357Z,9.93
2023-04-22T07:15:06.260Z,11.00
2023-04-22T07:18:00.289Z,10.82
2023-04-22T07:20:47.480Z,8.80
2023-04-22T07:23:41.179Z,9.63
2023-04-22T07:26:28.375Z,9.93
2023-04-22T07:29:22.185Z,11.55
2023-04-22T07:32:09.535Z,9.82
2023-04-22T07:35:03.231Z,8.02
2023-04-22T07:37:50.765Z,9.82
2023-04-22T07:40:44.238Z,8.45
2023-04-22T07:43:31.354Z,7.05
2023-04-22T07:46:25.216Z,8.90
2023-04-22T07:49:14.234Z,9.25
2023-04-22T07:52:08.206Z,10.57
2023-04-22T07:54:55.472Z,10.70
2023-04-22T07:57:49.231Z,8.60
2023-04-22T08:00:36.456Z,11.75
2023-04-22T08:03:30.466Z,10.52
2023-04-22T08:06:24.303Z,10.68
2023-04-22T08:09:11.517Z,11.10
2023-04-22T08:12:05.324Z,12.13
2023-04-22T08:14:52.667Z,9.48
2023-04-22T08:17:46.302Z,9.18
2023-04-22T08:20:33.469Z,8.57
2023-04-22T08:23:28.309Z,8.55
2023-04-22T08:26:16.919Z,8.15
2023-04-22T08:29:11.298Z,7.18
2023-04-22T08:31:58.418Z,9.52
2023-04-22T08:34:54.197Z,9.25
2023-04-22T08:37:44.780Z,7.25
2023-04-22T08:40:40.405Z,5.97
2023-04-22T08:43:34.576Z,6.80
2023-04-22T08:46:24.158Z,5.60
2023-04-22T08:49:19.332Z,6.63
2023-04-22T08:52:06.588Z,7.47
2023-04-22T08:55:00.326Z,10.85
2023-04-22T08:57:48.227Z,6.65
2023-04-22T09:00:42.386Z,5.60
2023-04-22T09:03:30.728Z,7.30
2023-04-22T09:06:27.484Z,6.55
2023-04-22T09:09:14.817Z,7.47
2023-04-22T09:12:09.410Z,7.80
2023-04-22T09:14:56.873Z,7.82
2023-04-22T09:17:50.404Z,7.10
2023-04-22T09:20:41.993Z,8.25
2023-04-22T09:23:35.379Z,7.40
2023-04-22T09:26:24.656Z,6.47
2023-04-22T09:29:22.364Z,4.60
2023-04-22T09:32:11.770Z,5.47
2023-04-22T09:35:05.455Z,5.82
2023-04-22T09:37:52.988Z,5.90
2023-04-22T09:40:51.402Z,5.95
2023-04-22T09:43:45.370Z,5.55
2023-04-22T09:46:34.032Z,5.47
2023-04-22T09:49:29.811Z,4.63
2023-04-22T09:52:25.164Z,4.93
2023-04-22T09:55:18.431Z,4.57
2023-04-22T09:58:09.101Z,4.47
2023-04-22T10:01:05.461Z,5.30
2023-04-22T10:03:59.680Z,4.38
2023-04-22T10:06:47.684Z,4.40
2023-04-22T10:09:41.636Z,7.40
2023-04-22T10:12:35.801Z,5.53
2023-04-22T10:15:30.456Z,4.45
2023-04-22T10:18:24.481Z,4.20
2023-04-22T10:21:19.487Z,4.20
2023-04-22T10:24:06.960Z,7.85
2023-04-22T10:27:11.548Z,10.48
2023-04-22T10:30:05.486Z,8.00
2023-04-22T10:32:53.400Z,6.07
2023-04-22T10:35:47.516Z,4.97
2023-04-22T10:38:35.812Z,3.78
2023-04-22T10:41:35.477Z,4.32
2023-04-22T10:44:23.173Z,6.78
2023-04-22T10:47:17.489Z,8.10
2023-04-22T10:50:16.581Z,5.22
2023-04-22T10:53:41.572Z,5.93
2023-04-22T10:56:36.389Z,3.95
2023-04-22T10:59:26.404Z,5.35
2023-04-22T11:02:24.585Z,6.18
2023-04-22T11:05:26.867Z,5.03
2023-04-22T11:08:29.551Z,6.03
2023-04-22T11:11:20.005Z,5.40
2023-04-22T11:14:15.524Z,5.15
2023-04-22T11:17:02.737Z,7.15
2023-04-22T11:19:57.607Z,13.23
2023-04-22T11:22:54.573Z,12.68
2023-04-22T11:25:48.531Z,10.32
2023-04-22T11:28:42.598Z,9.55
2023-04-22T11:31:29.845Z,11.32
2023-04-22T11:34:24.617Z,10.35
2023-04-22T11:37:12.654Z,11.82
2023-04-22T11:40:28.045Z,13.60
2023-04-22T11:43:14.905Z,13.85
2023-04-22T11:46:08.617Z,14.40
2023-04-22T11:49:33.563Z,14.25
2023-04-22T11:52:21.272Z,14.65
2023-04-22T11:55:20.620Z,12.85
2023-04-22T11:58:13.347Z,12.20
2023-04-22T12:01:08.094Z,14.07
2023-04-22T12:04:07.712Z,17.27
2023-04-22T12:07:01.629Z,17.83
2023-04-22T12:09:56.710Z,17.30
2023-04-22T12:12:43.850Z,17.00
2023-04-22T12:15:49.628Z,17.27
2023-04-22T12:18:41.196Z,18.00
2023-04-22T12:21:38.677Z,17.33
2023-04-22T12:24:35.707Z,17.17
2023-04-22T12:27:29.661Z,24.23
2023-04-22T12:30:17.189Z,23.45
2023-04-22T12:33:10.716Z,22.27
2023-04-22T12:36:04.708Z,22.20
2023-04-22T12:38:51.895Z,23.30
2023-04-22T12:41:45.722Z,21.92
2023-04-22T12:44:33.755Z,24.25
2023-04-22T12:47:27.787Z,22.95
2023-04-22T12:50:15.109Z,25.10
2023-04-22T12:53:08.769Z,21.00
2023-04-22T12:56:02.746Z,22.25
2023-04-22T12:58:49.923Z,19.38
2023-04-22T13:01:43.772Z,20.48
2023-04-22T13:04:30.978Z,22.02
2023-04-22T13:07:24.763Z,24.02
2023-04-22T13:10:14.604Z,23.85
2023-04-22T13:13:18.451Z,23.17
2023-04-22T13:16:06.416Z,22.05
2023-04-22T13:19:00.815Z,24.05
2023-04-22T13:21:47.870Z,25.77
2023-04-22T13:24:41.751Z,23.13
2023-04-22T13:27:28.927Z,26.50
2023-04-22T13:30:22.748Z,25.98
2023-04-22T13:33:09.916Z,26.17
2023-04-22T13:36:03.795Z,22.60
2023-04-22T13:38:57.807Z,21.45
2023-04-22T13:41:51.776Z,25.67
2023-04-22T13:44:38.986Z,25.88
2023-04-22T13:47:32.847Z,30.23
2023-04-22T13:50:26.860Z,34.25
2023-04-22T13:53:14.277Z,34.55
2023-04-22T13:56:07.804Z,33.85
2023-04-22T13:58:55.079Z,32.90
2023-04-22T14:01:48.836Z,31.83
2023-04-22T14:04:42.871Z,32.88
2023-04-22T14:07:30.045Z,30.38
2023-04-22T14:10:28.599Z,30.17
2023-04-22T14:13:16.020Z,28.40
2023-04-22T14:16:13.888Z,27.73
2023-04-22T14:19:06.062Z,34.13
2023-04-22T14:21:59.827Z,30.25
2023-04-22T14:24:47.849Z,33.20
2023-04-22T14:27:41.878Z,31.13
2023-04-22T14:30:35.894Z,34.65
2023-04-22T14:33:30.901Z,30.38
2023-04-22T14:36:18.720Z,35.42
2023-04-22T14:39:11.894Z,29.85
2023-04-22T14:42:05.877Z,33.40
2023-04-22T14:44:59.953Z,32.53
2023-04-22T14:47:54.041Z,29.70
2023-04-22T14:50:42.237Z,38.47
2023-04-22T14:53:35.900Z,36.92
2023-04-22T14:56:22.998Z,37.15
2023-04-22T14:59:16.888Z,41.30
2023-04-22T15:02:05.650Z,37.80
2023-04-22T15:05:01.989Z,34.60
2023-04-22T15:07:49.848Z,37.40
2023-04-22T15:10:43.896Z,37.03
2023-04-22T15:13:37.958Z,41.95
2023-04-22T15:16:25.134Z,40.30
2023-04-22T15:19:18.925Z,40.00
2023-04-22T15:22:06.122Z,38.90
2023-04-22T15:24:59.926Z,46.50
2023-04-22T15:27:47.489Z,42.13
2023-04-22T15:30:41.164Z,39.38
2023-04-22T15:33:28.308Z,45.58
2023-04-22T15:36:25.008Z,42.00
2023-04-22T15:39:12.332Z,42.97
2023-04-22T15:42:05.979Z,40.38
2023-04-22T15:44:53.116Z,42.88
2023-04-22T15:47:48.035Z,37.80
2023-04-22T15:50:41.972Z,41.70
2023-04-22T15:53:29.029Z,39.53
2023-04-22T15:56:23.072Z,38.35
2023-04-22T15:59:10.186Z,40.92
2023-04-22T16:02:04.238Z,45.20
2023-04-22T16:04:51.506Z,40.67
2023-04-22T16:07:45.004Z,42.15
2023-04-22T16:10:32.128Z,42.85
2023-04-22T16:13:26.036Z,45.45
2023-04-22T16:16:13.268Z,43.65
2023-04-22T16:19:07.039Z,41.72
2023-04-22T16:21:54.198Z,42.97
2023-04-22T16:24:48.074Z,42.88
2023-04-22T16:27:42.054Z,43.58
2023-04-22T16:30:29.242Z,43.67
2023-04-22T16:33:24.071Z,42.97
2023-04-22T16:36:11.496Z,44.03
2023-04-22T16:39:05.077Z,48.58
2023-04-22T16:41:54.083Z,44.17
2023-04-22T16:44:48.082Z,46.20
2023-04-22T16:47:35.284Z,40.55
2023-04-22T16:50:29.089Z,50.95
2023-04-22T16:53:23.122Z,45.30
2023-04-22T16:56:17.120Z,47.92
2023-04-22T16:59:11.067Z,46.53
2023-04-22T17:02:05.136Z,50.35
2023-04-22T17:04:52.460Z,54.30
2023-04-22T17:07:46.153Z,54.40
2023-04-22T17:10:41.412Z,48.33
2023-04-22T17:13:38.219Z,67.57
2023-04-22T17:16:32.081Z,51.30
2023-04-22T17:19:26.165Z,49.55
2023-04-22T17:22:13.338Z,48.00
2023-04-22T17:25:07.206Z,46.33
2023-04-22T17:28:01.121Z,44.63
2023-04-22T17:30:48.369Z,43.08
2023-04-22T17:33:45.119Z,47.25
2023-04-22T17:36:32.274Z,41.78
2023-04-22T17:39:26.161Z,42.35
2023-04-22T17:42:20.204Z,37.95
2023-04-22T17:45:14.173Z,43.45
2023-04-22T17:48:08.250Z,38.70
2023-04-22T17:51:02.177Z,42.63
2023-04-22T17:53:49.639Z,36.50
2023-04-22T17:56:43.186Z,33.25
2023-04-22T17:59:37.228Z,34.85
2023-04-22T18:02:25.406Z,42.13
2023-04-22T18:05:19.228Z,37.22
2023-04-22T18:08:06.414Z,36.28
2023-04-22T18:11:00.261Z,35.00
2023-04-22T18:13:47.694Z,42.25
2023-04-22T18:16:41.313Z,45.45
2023-04-22T18:19:28.533Z,43.63
2023-04-22T18:22:24.243Z,43.90
2023-04-22T18:25:11.395Z,43.25
2023-04-22T18:28:05.266Z,41.53
2023-04-22T18:30:52.749Z,39.72
2023-04-22T18:33:46.231Z,39.00
2023-04-22T18:36:33.401Z,38.63
2023-04-22T18:39:28.279Z,37.78
2023-04-22T18:42:22.238Z,36.65
2023-04-22T18:45:09.616Z,44.63
2023-04-22T18:48:03.341Z,42.30
2023-04-22T18:50:51.752Z,76.97
2023-04-22T18:53:45.344Z,58.25
2023-04-22T18:56:33.414Z,51.78
2023-04-22T18:59:42.334Z,50.85
2023-04-22T19:02:39.073Z,47.20
2023-04-22T19:05:34.338Z,43.50
2023-04-22T19:08:21.489Z,41.78
2023-04-22T19:11:16.266Z,37.00
2023-04-22T19:14:10.315Z,41.13
2023-04-22T19:16:57.451Z,32.90
2023-04-22T19:19:51.329Z,43.88
2023-04-22T19:22:39.638Z,37.78
2023-04-22T19:25:33.319Z,41.65
2023-04-22T19:28:20.510Z,39.53
2023-04-22T19:31:14.342Z,36.88
2023-04-22T19:34:09.354Z,43.65
2023-04-22T19:37:03.324Z,43.92
2023-04-22T19:39:50.498Z,43.28
2023-04-22T19:42:44.360Z,36.42
2023-04-22T19:45:31.748Z,32.58
2023-04-22T19:48:25.362Z,39.42
2023-04-22T19:51:19.368Z,39.25
2023-04-22T19:54:08.381Z,36.28
2023-04-22T19:57:03.395Z,42.30
2023-04-22T19:59:53.994Z,35.72
2023-04-22T20:02:47.656Z,42.22
2023-04-22T20:05:35.612Z,41.50
2023-04-22T20:08:33.480Z,40.72
2023-04-22T20:11:21.444Z,41.00
2023-04-22T20:14:16.413Z,36.58
2023-04-22T20:17:04.078Z,35.10
2023-04-22T20:19:59.446Z,43.80
2023-04-22T20:22:46.583Z,38.40
2023-04-22T20:25:42.393Z,44.42
2023-04-22T20:28:51.453Z,49.95
2023-04-22T20:31:40.348Z,42.92
2023-04-22T20:34:34.457Z,40.00
2023-04-22T20:37:22.944Z,39.42
2023-04-22T20:40:18.452Z,48.13
2023-04-22T20:43:05.587Z,45.85
2023-04-22T20:45:59.603Z,45.78
2023-04-22T20:48:46.803Z,48.55
2023-04-22T20:51:40.436Z,43.30
2023-04-22T20:54:34.536Z,50.47
2023-04-22T20:57:21.786Z,45.47
2023-04-22T21:00:16.539Z,48.15
2023-04-22T21:03:06.989Z,48.17
2023-04-22T21:06:00.526Z,39.58
2023-04-22T21:08:49.583Z,42.53
2023-04-22T21:11:43.566Z,46.95
2023-04-22T21:14:37.541Z,46.58
2023-04-22T21:17:38.608Z,55.85
2023-04-22T21:20:27.827Z,44.97
2023-04-22T21:23:23.539Z,51.60
2023-04-22T21:26:11.139Z,56.75
2023-04-22T21:29:05.522Z,47.45
2023-04-22T21:32:08.757Z,50.42
2023-04-22T21:34:56.813Z,45.35
2023-04-22T21:37:50.535Z,53.05
2023-04-22T21:40:37.633Z,45.72
2023-04-22T21:43:31.545Z,46.58
2023-04-22T21:46:18.904Z,50.65
2023-04-22T21:49:12.553Z,50.95
2023-04-22T21:51:59.845Z,60.30
2023-04-22T21:54:53.547Z,51.67
2023-04-22T21:57:40.713Z,46.03
2023-04-22T22:00:34.571Z,47.28
2023-04-22T22:03:28.836Z,43.90
2023-04-22T22:06:16.254Z,55.97
2023-04-22T22:09:09.553Z,50.50
2023-04-22T22:11:57.214Z,47.28
2023-04-22T22:14:50.607Z,56.00
2023-04-22T22:17:39.964Z,50.38
2023-04-22T22:20:33.609Z,53.20
2023-04-22T22:23:21.576Z,53.60
2023-04-22T22:26:15.598Z,54.70
2023-04-22T22:29:15.244Z,49.47
2023-04-22T22:32:15.635Z,49.60
2023-04-22T22:35:03.360Z,61.65
2023-04-22T22:37:57.681Z,52.10
2023-04-22T22:40:51.659Z,51.58
2023-04-22T22:43:38.734Z,47.88
2023-04-22T22:46:32.672Z,52.67
2023-04-22T22:49:19.854Z,56.35
2023-04-22T22:52:13.683Z,59.75
2023-04-22T22:55:00.886Z,65.78
2023-04-22T22:57:54.624Z,59.03
2023-04-22T23:00:41.725Z,61.35
2023-04-22T23:03:35.821Z,55.97
2023-04-22T23:06:23.048Z,63.00
2023-04-22T23:09:17.693Z,65.00
2023-04-22T23:12:11.660Z,69.45
2023-04-22T23:14:58.795Z,57.38
2023-04-22T23:17:52.766Z,74.30
2023-04-22T23:20:41.620Z,69.88
2023-04-22T23:23:38.696Z,59.03
2023-04-22T23:26:26.085Z,59.45
2023-04-22T23:29:19.682Z,56.08
2023-04-22T23:32:09.584Z,54.00
2023-04-22T23:35:06.739Z,60.45
2023-04-22T23:38:00.695Z,57.63
2023-04-22T23:40:48.045Z,57.42
2023-04-22T23:43:41.799Z,61.65
2023-04-22T23:46:28.965Z,62.47
2023-04-22T23:49:22.720Z,52.42
2023-04-22T23:52:11.020Z,52.10
2023-04-22T23:55:04.789Z,49.47
2023-04-22T23:57:52.278Z,51.13
